sensor_id;sensor_type;location;lat;lon;timestamp;temperature;humidity
16327;DHT22;34812;49.846;9.610;2022-08-19T00:00:48;19.80;99.90
16327;DHT22;34812;49.846;9.610;2022-08-19T00:01:53;19.80;99.90
16327;DHT22;34812;49.846;9.610;2022-08-19T00:02:55;19.80;99.90
16327;DHT22;34812;49.846;9.610;2022-08-19T00:03:57;19.80;99.90
16327;DHT22;34812;49.846;9.610;2022-08-19T00:04:58;19.80;99.90
16327;DHT22;34812;49.846;9.610;2022-08-19T00:06:00;19.80;99.90
16327;DHT22;34812;49.846;9.610;2022-08-19T00:07:00;19.80;99.90
16327;DHT22;34812;49.846;9.610;2022-08-19T00:08:03;19.80;99.90
16327;DHT22;34812;49.846;9.610;2022-08-19T00:09:04;19.80;99.90
16327;DHT22;34812;49.846;9.610;2022-08-19T00:10:08;19.80;99.90
16327;DHT22;34812;49.846;9.610;2022-08-19T00:11:09;19.80;99.90
16327;DHT22;34812;49.846;9.610;2022-08-19T00:12:11;19.80;99.90
16327;DHT22;34812;49.846;9.610;2022-08-19T00:13:12;19.90;99.90
16327;DHT22;34812;49.846;9.610;2022-08-19T00:14:15;19.90;99.90
16327;DHT22;34812;49.846;9.610;2022-08-19T00:15:19;19.90;99.90
16327;DHT22;34812;49.846;9.610;2022-08-19T00:16:22;19.90;99.90
16327;DHT22;34812;49.846;9.610;2022-08-19T00:17:22;19.90;99.90
16327;DHT22;34812;49.846;9.610;2022-08-19T00:18:26;19.90;99.90
16327;DHT22;34812;49.846;9.610;2022-08-19T00:19:27;19.90;99.90
16327;DHT22;34812;49.846;9.610;2022-08-19T00:20:28;19.90;99.90
16327;DHT22;34812;49.846;9.610;2022-08-19T00:21:29;19.90;99.90
16327;DHT22;34812;49.846;9.610;2022-08-19T00:22:31;19.90;99.90
16327;DHT22;34812;49.846;9.610;2022-08-19T00:23:33;19.90;99.90
16327;DHT22;34812;49.846;9.610;2022-08-19T00:24:36;20.00;99.90
16327;DHT22;34812;49.846;9.610;2022-08-19T00:25:38;20.00;99.90
16327;DHT22;34812;49.846;9.610;2022-08-19T00:26:42;19.90;99.90
16327;DHT22;34812;49.846;9.610;2022-08-19T00:27:43;19.90;99.90
16327;DHT22;34812;49.846;9.610;2022-08-19T00:28:45;19.90;99.90
16327;DHT22;34812;49.846;9.610;2022-08-19T00:29:46;19.90;99.90
16327;DHT22;34812;49.846;9.610;2022-08-19T00:30:48;19.90;99.90
16327;DHT22;34812;49.846;9.610;2022-08-19T00:31:52;19.90;99.90
16327;DHT22;34812;49.846;9.610;2022-08-19T00:32:54;20.00;99.90
16327;DHT22;34812;49.846;9.610;2022-08-19T00:33:58;20.00;99.90
16327;DHT22;34812;49.846;9.610;2022-08-19T00:34:59;20.00;99.90
16327;DHT22;34812;49.846;9.610;2022-08-19T00:36:04;20.00;99.90
16327;DHT22;34812;49.846;9.610;2022-08-19T00:37:04;20.00;99.90
16327;DHT22;34812;49.846;9.610;2022-08-19T00:38:06;20.00;99.90
16327;DHT22;34812;49.846;9.610;2022-08-19T00:39:07;20.00;99.90
16327;DHT22;34812;49.846;9.610;2022-08-19T00:40:11;20.00;99.90
16327;DHT22;34812;49.846;9.610;2022-08-19T00:41:13;20.00;99.90
16327;DHT22;34812;49.846;9.610;2022-08-19T00:42:17;20.00;99.90
16327;DHT22;34812;49.846;9.610;2022-08-19T00:43:19;20.00;99.90
16327;DHT22;34812;49.846;9.610;2022-08-19T00:44:23;20.00;99.90
16327;DHT22;34812;49.846;9.610;2022-08-19T00:45:28;20.00;99.90
16327;DHT22;34812;49.846;9.610;2022-08-19T00:46:32;20.00;99.90
16327;DHT22;34812;49.846;9.610;2022-08-19T00:47:33;20.00;99.90
16327;DHT22;34812;49.846;9.610;2022-08-19T00:48:35;20.00;99.90
16327;DHT22;34812;49.846;9.610;2022-08-19T00:49:42;20.00;99.90
16327;DHT22;34812;49.846;9.610;2022-08-19T00:50:48;20.00;99.90
16327;DHT22;34812;49.846;9.610;2022-08-19T00:51:52;19.90;99.90
16327;DHT22;34812;49.846;9.610;2022-08-19T00:52:54;19.90;99.90
16327;DHT22;34812;49.846;9.610;2022-08-19T00:53:57;19.90;99.90
16327;DHT22;34812;49.846;9.610;2022-08-19T00:55:02;19.90;99.90
16327;DHT22;34812;49.846;9.610;2022-08-19T00:56:03;19.80;99.90
16327;DHT22;34812;49.846;9.610;2022-08-19T00:57:11;19.80;99.90
16327;DHT22;34812;49.846;9.610;2022-08-19T00:58:15;19.80;99.90
16327;DHT22;34812;49.846;9.610;2022-08-19T00:59:18;19.70;99.90
16327;DHT22;34812;49.846;9.610;2022-08-19T01:00:20;19.70;99.90
16327;DHT22;34812;49.846;9.610;2022-08-19T01:01:22;19.60;99.90
16327;DHT22;34812;49.846;9.610;2022-08-19T01:02:24;19.60;99.90
16327;DHT22;34812;49.846;9.610;2022-08-19T01:03:26;19.60;99.90
16327;DHT22;34812;49.846;9.610;2022-08-19T01:04:26;19.60;99.90
16327;DHT22;34812;49.846;9.610;2022-08-19T01:05:29;19.50;99.90
16327;DHT22;34812;49.846;9.610;2022-08-19T01:06:31;19.50;99.90
16327;DHT22;34812;49.846;9.610;2022-08-19T01:07:34;19.50;99.90
16327;DHT22;34812;49.846;9.610;2022-08-19T01:08:35;19.40;99.90
16327;DHT22;34812;49.846;9.610;2022-08-19T01:09:36;19.40;99.90
16327;DHT22;34812;49.846;9.610;2022-08-19T01:10:41;19.40;99.90
16327;DHT22;34812;49.846;9.610;2022-08-19T01:11:45;19.40;99.90
16327;DHT22;34812;49.846;9.610;2022-08-19T01:12:46;19.40;99.90
16327;DHT22;34812;49.846;9.610;2022-08-19T01:13:49;19.40;99.90
16327;DHT22;34812;49.846;9.610;2022-08-19T01:14:51;19.30;99.90
16327;DHT22;34812;49.846;9.610;2022-08-19T01:15:56;19.30;99.90
16327;DHT22;34812;49.846;9.610;2022-08-19T01:16:58;19.30;99.90
16327;DHT22;34812;49.846;9.610;2022-08-19T01:18:06;19.30;99.90
16327;DHT22;34812;49.846;9.610;2022-08-19T01:19:12;19.30;99.90
16327;DHT22;34812;49.846;9.610;2022-08-19T01:20:18;19.30;99.90
16327;DHT22;34812;49.846;9.610;2022-08-19T01:21:24;19.30;99.90
16327;DHT22;34812;49.846;9.610;2022-08-19T01:22:30;19.30;99.90
16327;DHT22;34812;49.846;9.610;2022-08-19T01:23:32;19.40;99.90
16327;DHT22;34812;49.846;9.610;2022-08-19T01:24:43;19.30;99.90
16327;DHT22;34812;49.846;9.610;2022-08-19T01:25:46;19.30;99.90
16327;DHT22;34812;49.846;9.610;2022-08-19T01:26:50;19.30;99.90
16327;DHT22;34812;49.846;9.610;2022-08-19T01:27:50;19.20;99.90
16327;DHT22;34812;49.846;9.610;2022-08-19T01:28:55;19.20;99.90
16327;DHT22;34812;49.846;9.610;2022-08-19T01:29:56;19.10;99.90
16327;DHT22;34812;49.846;9.610;2022-08-19T01:30:57;19.10;99.90
16327;DHT22;34812;49.846;9.610;2022-08-19T01:31:58;19.10;99.90
16327;DHT22;34812;49.846;9.610;2022-08-19T01:33:01;19.10;99.90
16327;DHT22;34812;49.846;9.610;2022-08-19T01:34:03;19.00;99.90
16327;DHT22;34812;49.846;9.610;2022-08-19T01:35:05;19.00;99.90
16327;DHT22;34812;49.846;9.610;2022-08-19T01:36:09;19.00;99.90
16327;DHT22;34812;49.846;9.610;2022-08-19T01:37:12;19.00;99.90
16327;DHT22;34812;49.846;9.610;2022-08-19T01:38:23;19.10;99.90
16327;DHT22;34812;49.846;9.610;2022-08-19T01:39:25;19.00;99.90
16327;DHT22;34812;49.846;9.610;2022-08-19T01:40:28;19.10;99.90
16327;DHT22;34812;49.846;9.610;2022-08-19T01:41:31;19.00;99.90
16327;DHT22;34812;49.846;9.610;2022-08-19T01:42:31;19.00;99.90
16327;DHT22;34812;49.846;9.610;2022-08-19T01:43:33;19.00;99.90
16327;DHT22;34812;49.846;9.610;2022-08-19T01:44:34;19.00;99.90
16327;DHT22;34812;49.846;9.610;2022-08-19T01:45:36;19.10;99.90
16327;DHT22;34812;49.846;9.610;2022-08-19T01:46:41;19.10;99.90
16327;DHT22;34812;49.846;9.610;2022-08-19T01:47:42;19.00;99.90
16327;DHT22;34812;49.846;9.610;2022-08-19T01:48:44;19.00;99.90
16327;DHT22;34812;49.846;9.610;2022-08-19T01:49:46;19.00;99.90
16327;DHT22;34812;49.846;9.610;2022-08-19T01:50:47;19.00;99.90
16327;DHT22;34812;49.846;9.610;2022-08-19T01:51:49;18.90;99.90
16327;DHT22;34812;49.846;9.610;2022-08-19T01:52:50;18.90;99.90
16327;DHT22;34812;49.846;9.610;2022-08-19T01:53:54;19.00;99.90
16327;DHT22;34812;49.846;9.610;2022-08-19T01:54:54;18.90;99.90
16327;DHT22;34812;49.846;9.610;2022-08-19T01:55:56;18.90;99.90
16327;DHT22;34812;49.846;9.610;2022-08-19T01:57:01;18.90;99.90
16327;DHT22;34812;49.846;9.610;2022-08-19T01:58:05;19.00;99.90
16327;DHT22;34812;49.846;9.610;2022-08-19T01:59:09;19.00;99.90
16327;DHT22;34812;49.846;9.610;2022-08-19T02:00:14;19.00;99.90
16327;DHT22;34812;49.846;9.610;2022-08-19T02:01:16;19.00;99.90
16327;DHT22;34812;49.846;9.610;2022-08-19T02:02:18;19.00;99.90
16327;DHT22;34812;49.846;9.610;2022-08-19T02:03:18;19.00;99.90
16327;DHT22;34812;49.846;9.610;2022-08-19T02:04:20;19.00;99.90
16327;DHT22;34812;49.846;9.610;2022-08-19T02:05:21;19.00;99.90
16327;DHT22;34812;49.846;9.610;2022-08-19T02:06:23;19.00;99.90
16327;DHT22;34812;49.846;9.610;2022-08-19T02:07:24;19.00;99.90
16327;DHT22;34812;49.846;9.610;2022-08-19T02:08:26;19.00;99.90
16327;DHT22;34812;49.846;9.610;2022-08-19T02:09:28;18.90;99.90
16327;DHT22;34812;49.846;9.610;2022-08-19T02:10:30;18.90;99.90
16327;DHT22;34812;49.846;9.610;2022-08-19T02:11:32;18.90;99.90
16327;DHT22;34812;49.846;9.610;2022-08-19T02:12:35;18.90;99.90
16327;DHT22;34812;49.846;9.610;2022-08-19T02:13:36;18.90;99.90
16327;DHT22;34812;49.846;9.610;2022-08-19T02:14:37;18.80;99.90
16327;DHT22;34812;49.846;9.610;2022-08-19T02:15:38;18.80;99.90
16327;DHT22;34812;49.846;9.610;2022-08-19T02:16:40;18.80;99.90
16327;DHT22;34812;49.846;9.610;2022-08-19T02:17:41;18.80;99.90
16327;DHT22;34812;49.846;9.610;2022-08-19T02:18:43;18.80;99.90
16327;DHT22;34812;49.846;9.610;2022-08-19T02:19:44;18.80;99.90
16327;DHT22;34812;49.846;9.610;2022-08-19T02:20:46;18.70;99.90
16327;DHT22;34812;49.846;9.610;2022-08-19T02:21:47;18.70;99.90
16327;DHT22;34812;49.846;9.610;2022-08-19T02:22:49;18.70;99.90
16327;DHT22;34812;49.846;9.610;2022-08-19T02:23:51;18.70;99.90
16327;DHT22;34812;49.846;9.610;2022-08-19T02:24:54;18.70;99.90
16327;DHT22;34812;49.846;9.610;2022-08-19T02:25:55;18.70;99.90
16327;DHT22;34812;49.846;9.610;2022-08-19T02:26:57;18.70;99.90
16327;DHT22;34812;49.846;9.610;2022-08-19T02:27:59;18.60;99.90
16327;DHT22;34812;49.846;9.610;2022-08-19T02:29:01;18.60;99.90
16327;DHT22;34812;49.846;9.610;2022-08-19T02:30:02;18.60;99.90
16327;DHT22;34812;49.846;9.610;2022-08-19T02:31:09;18.60;99.90
16327;DHT22;34812;49.846;9.610;2022-08-19T02:32:09;18.60;99.90
16327;DHT22;34812;49.846;9.610;2022-08-19T02:33:11;18.50;99.90
16327;DHT22;34812;49.846;9.610;2022-08-19T02:34:12;18.50;99.90
16327;DHT22;34812;49.846;9.610;2022-08-19T02:35:14;18.50;99.90
16327;DHT22;34812;49.846;9.610;2022-08-19T02:36:16;18.40;99.90
16327;DHT22;34812;49.846;9.610;2022-08-19T02:37:17;18.40;99.90
16327;DHT22;34812;49.846;9.610;2022-08-19T02:38:37;18.40;99.90
16327;DHT22;34812;49.846;9.610;2022-08-19T02:39:38;18.40;99.90
16327;DHT22;34812;49.846;9.610;2022-08-19T02:40:48;18.30;99.90
16327;DHT22;34812;49.846;9.610;2022-08-19T02:41:50;18.30;99.90
16327;DHT22;34812;49.846;9.610;2022-08-19T02:42:52;18.30;99.90
16327;DHT22;34812;49.846;9.610;2022-08-19T02:43:53;18.20;99.90
16327;DHT22;34812;49.846;9.610;2022-08-19T02:44:55;18.20;99.90
16327;DHT22;34812;49.846;9.610;2022-08-19T02:45:56;18.20;99.90
16327;DHT22;34812;49.846;9.610;2022-08-19T02:46:58;18.20;99.90
16327;DHT22;34812;49.846;9.610;2022-08-19T02:47:58;18.20;99.90
16327;DHT22;34812;49.846;9.610;2022-08-19T02:49:03;18.20;99.90
16327;DHT22;34812;49.846;9.610;2022-08-19T02:50:06;18.20;99.90
16327;DHT22;34812;49.846;9.610;2022-08-19T02:51:08;18.10;99.90
16327;DHT22;34812;49.846;9.610;2022-08-19T02:52:09;18.20;99.90
16327;DHT22;34812;49.846;9.610;2022-08-19T02:53:12;18.10;99.90
16327;DHT22;34812;49.846;9.610;2022-08-19T02:54:14;18.10;99.90
16327;DHT22;34812;49.846;9.610;2022-08-19T02:55:15;18.10;99.90
16327;DHT22;34812;49.846;9.610;2022-08-19T02:56:18;18.10;99.90
16327;DHT22;34812;49.846;9.610;2022-08-19T02:57:20;18.10;99.90
16327;DHT22;34812;49.846;9.610;2022-08-19T02:58:21;18.10;99.90
16327;DHT22;34812;49.846;9.610;2022-08-19T02:59:23;18.00;99.90
16327;DHT22;34812;49.846;9.610;2022-08-19T03:00:26;18.00;99.90
16327;DHT22;34812;49.846;9.610;2022-08-19T03:01:30;18.00;99.90
16327;DHT22;34812;49.846;9.610;2022-08-19T03:02:31;18.00;99.90
16327;DHT22;34812;49.846;9.610;2022-08-19T03:03:33;18.00;99.90
16327;DHT22;34812;49.846;9.610;2022-08-19T03:04:34;18.00;99.90
16327;DHT22;34812;49.846;9.610;2022-08-19T03:05:35;18.00;99.90
16327;DHT22;34812;49.846;9.610;2022-08-19T03:06:38;18.10;99.90
16327;DHT22;34812;49.846;9.610;2022-08-19T03:07:40;18.10;99.90
16327;DHT22;34812;49.846;9.610;2022-08-19T03:08:42;18.10;99.90
16327;DHT22;34812;49.846;9.610;2022-08-19T03:09:44;18.10;99.90
16327;DHT22;34812;49.846;9.610;2022-08-19T03:10:46;18.10;99.90
16327;DHT22;34812;49.846;9.610;2022-08-19T03:11:50;18.20;99.90
16327;DHT22;34812;49.846;9.610;2022-08-19T03:12:50;18.20;99.90
16327;DHT22;34812;49.846;9.610;2022-08-19T03:13:53;18.20;99.90
16327;DHT22;34812;49.846;9.610;2022-08-19T03:14:54;18.20;99.90
16327;DHT22;34812;49.846;9.610;2022-08-19T03:15:56;18.30;99.90
16327;DHT22;34812;49.846;9.610;2022-08-19T03:16:57;18.30;99.90
16327;DHT22;34812;49.846;9.610;2022-08-19T03:17:59;18.30;99.90
16327;DHT22;34812;49.846;9.610;2022-08-19T03:19:00;18.40;99.90
16327;DHT22;34812;49.846;9.610;2022-08-19T03:20:03;18.30;99.90
16327;DHT22;34812;49.846;9.610;2022-08-19T03:21:05;18.40;99.90
16327;DHT22;34812;49.846;9.610;2022-08-19T03:22:07;18.50;99.90
16327;DHT22;34812;49.846;9.610;2022-08-19T03:23:08;18.50;99.90
16327;DHT22;34812;49.846;9.610;2022-08-19T03:24:11;18.50;99.90
16327;DHT22;34812;49.846;9.610;2022-08-19T03:25:12;18.50;99.90
16327;DHT22;34812;49.846;9.610;2022-08-19T03:26:14;18.60;99.90
16327;DHT22;34812;49.846;9.610;2022-08-19T03:27:16;18.70;99.90
16327;DHT22;34812;49.846;9.610;2022-08-19T03:28:18;18.70;99.90
16327;DHT22;34812;49.846;9.610;2022-08-19T03:29:19;18.70;99.90
16327;DHT22;34812;49.846;9.610;2022-08-19T03:30:21;18.70;99.90
16327;DHT22;34812;49.846;9.610;2022-08-19T03:31:22;18.70;99.90
16327;DHT22;34812;49.846;9.610;2022-08-19T03:32:24;18.80;99.90
16327;DHT22;34812;49.846;9.610;2022-08-19T03:33:26;18.80;99.90
16327;DHT22;34812;49.846;9.610;2022-08-19T03:34:30;18.80;99.90
16327;DHT22;34812;49.846;9.610;2022-08-19T03:35:31;18.80;99.90
16327;DHT22;34812;49.846;9.610;2022-08-19T03:36:32;18.90;99.90
16327;DHT22;34812;49.846;9.610;2022-08-19T03:37:34;19.00;99.90
16327;DHT22;34812;49.846;9.610;2022-08-19T03:38:36;19.00;99.90
16327;DHT22;34812;49.846;9.610;2022-08-19T03:39:39;19.00;99.90
16327;DHT22;34812;49.846;9.610;2022-08-19T03:40:40;19.00;99.90
16327;DHT22;34812;49.846;9.610;2022-08-19T03:41:45;19.00;99.90
16327;DHT22;34812;49.846;9.610;2022-08-19T03:42:48;19.00;99.90
16327;DHT22;34812;49.846;9.610;2022-08-19T03:43:51;19.00;99.90
16327;DHT22;34812;49.846;9.610;2022-08-19T03:44:52;19.00;99.90
16327;DHT22;34812;49.846;9.610;2022-08-19T03:46:00;19.00;99.90
16327;DHT22;34812;49.846;9.610;2022-08-19T03:47:03;19.00;99.90
16327;DHT22;34812;49.846;9.610;2022-08-19T03:48:05;19.10;99.90
16327;DHT22;34812;49.846;9.610;2022-08-19T03:49:06;19.10;99.90
16327;DHT22;34812;49.846;9.610;2022-08-19T03:50:09;19.10;99.90
16327;DHT22;34812;49.846;9.610;2022-08-19T03:51:16;19.00;99.90
16327;DHT22;34812;49.846;9.610;2022-08-19T03:52:18;19.10;99.90
16327;DHT22;34812;49.846;9.610;2022-08-19T03:53:18;19.00;99.90
16327;DHT22;34812;49.846;9.610;2022-08-19T03:54:22;19.10;99.90
16327;DHT22;34812;49.846;9.610;2022-08-19T03:55:23;19.10;99.90
16327;DHT22;34812;49.846;9.610;2022-08-19T03:56:25;19.00;99.90
16327;DHT22;34812;49.846;9.610;2022-08-19T03:57:28;19.10;99.90
16327;DHT22;34812;49.846;9.610;2022-08-19T03:58:31;19.10;99.90
16327;DHT22;34812;49.846;9.610;2022-08-19T03:59:34;19.10;99.90
16327;DHT22;34812;49.846;9.610;2022-08-19T04:00:36;19.10;99.90
16327;DHT22;34812;49.846;9.610;2022-08-19T04:01:37;19.10;99.90
16327;DHT22;34812;49.846;9.610;2022-08-19T04:02:39;19.10;99.90
16327;DHT22;34812;49.846;9.610;2022-08-19T04:03:40;19.10;99.90
16327;DHT22;34812;49.846;9.610;2022-08-19T04:04:43;19.10;99.90
16327;DHT22;34812;49.846;9.610;2022-08-19T04:05:45;19.10;99.90
16327;DHT22;34812;49.846;9.610;2022-08-19T04:06:47;19.20;99.90
16327;DHT22;34812;49.846;9.610;2022-08-19T04:07:49;19.20;99.90
16327;DHT22;34812;49.846;9.610;2022-08-19T04:08:51;19.20;99.90
16327;DHT22;34812;49.846;9.610;2022-08-19T04:09:54;19.20;99.90
16327;DHT22;34812;49.846;9.610;2022-08-19T04:10:55;19.20;99.90
16327;DHT22;34812;49.846;9.610;2022-08-19T04:11:57;19.20;99.90
16327;DHT22;34812;49.846;9.610;2022-08-19T04:12:58;19.20;99.90
16327;DHT22;34812;49.846;9.610;2022-08-19T04:14:01;19.20;99.90
16327;DHT22;34812;49.846;9.610;2022-08-19T04:15:02;19.20;99.90
16327;DHT22;34812;49.846;9.610;2022-08-19T04:16:04;19.20;99.90
16327;DHT22;34812;49.846;9.610;2022-08-19T04:17:05;19.30;99.90
16327;DHT22;34812;49.846;9.610;2022-08-19T04:18:08;19.30;99.90
16327;DHT22;34812;49.846;9.610;2022-08-19T04:19:09;19.20;99.90
16327;DHT22;34812;49.846;9.610;2022-08-19T04:20:11;19.30;99.90
16327;DHT22;34812;49.846;9.610;2022-08-19T04:21:16;19.30;99.90
16327;DHT22;34812;49.846;9.610;2022-08-19T04:22:19;19.30;99.90
16327;DHT22;34812;49.846;9.610;2022-08-19T04:23:20;19.30;99.90
16327;DHT22;34812;49.846;9.610;2022-08-19T04:24:22;19.30;99.90
16327;DHT22;34812;49.846;9.610;2022-08-19T04:25:24;19.30;99.90
16327;DHT22;34812;49.846;9.610;2022-08-19T04:26:27;19.30;99.90
16327;DHT22;34812;49.846;9.610;2022-08-19T04:27:29;19.30;99.90
16327;DHT22;34812;49.846;9.610;2022-08-19T04:28:29;19.30;99.90
16327;DHT22;34812;49.846;9.610;2022-08-19T04:29:33;19.30;99.90
16327;DHT22;34812;49.846;9.610;2022-08-19T04:30:39;19.40;99.90
16327;DHT22;34812;49.846;9.610;2022-08-19T04:31:42;19.40;99.90
16327;DHT22;34812;49.846;9.610;2022-08-19T04:32:43;19.40;99.90
16327;DHT22;34812;49.846;9.610;2022-08-19T04:33:45;19.40;99.90
16327;DHT22;34812;49.846;9.610;2022-08-19T04:34:46;19.40;99.90
16327;DHT22;34812;49.846;9.610;2022-08-19T04:35:49;19.40;99.90
16327;DHT22;34812;49.846;9.610;2022-08-19T04:36:51;19.50;99.90
16327;DHT22;34812;49.846;9.610;2022-08-19T04:37:54;19.50;99.90
16327;DHT22;34812;49.846;9.610;2022-08-19T04:38:56;19.40;99.90
16327;DHT22;34812;49.846;9.610;2022-08-19T04:39:58;19.40;99.90
16327;DHT22;34812;49.846;9.610;2022-08-19T04:41:17;19.50;99.90
16327;DHT22;34812;49.846;9.610;2022-08-19T04:42:36;19.50;99.90
16327;DHT22;34812;49.846;9.610;2022-08-19T04:43:40;19.50;99.90
16327;DHT22;34812;49.846;9.610;2022-08-19T04:44:43;19.50;99.90
16327;DHT22;34812;49.846;9.610;2022-08-19T04:45:44;19.50;99.90
16327;DHT22;34812;49.846;9.610;2022-08-19T04:46:47;19.50;99.90
16327;DHT22;34812;49.846;9.610;2022-08-19T04:47:48;19.50;99.90
16327;DHT22;34812;49.846;9.610;2022-08-19T04:48:50;19.50;99.90
16327;DHT22;34812;49.846;9.610;2022-08-19T04:49:50;19.50;99.90
16327;DHT22;34812;49.846;9.610;2022-08-19T04:50:53;19.50;99.90
16327;DHT22;34812;49.846;9.610;2022-08-19T04:51:57;19.50;99.90
16327;DHT22;34812;49.846;9.610;2022-08-19T04:52:59;19.60;99.90
16327;DHT22;34812;49.846;9.610;2022-08-19T04:54:01;19.60;99.90
16327;DHT22;34812;49.846;9.610;2022-08-19T04:55:03;19.60;99.90
16327;DHT22;34812;49.846;9.610;2022-08-19T04:56:09;19.60;99.90
16327;DHT22;34812;49.846;9.610;2022-08-19T04:57:11;19.60;99.90
16327;DHT22;34812;49.846;9.610;2022-08-19T04:58:11;19.60;99.90
16327;DHT22;34812;49.846;9.610;2022-08-19T04:59:13;19.60;99.90
16327;DHT22;34812;49.846;9.610;2022-08-19T05:00:16;19.60;99.90
16327;DHT22;34812;49.846;9.610;2022-08-19T05:01:21;19.60;99.90
16327;DHT22;34812;49.846;9.610;2022-08-19T05:02:22;19.60;99.90
16327;DHT22;34812;49.846;9.610;2022-08-19T05:03:26;19.60;99.90
16327;DHT22;34812;49.846;9.610;2022-08-19T05:04:26;19.70;99.90
16327;DHT22;34812;49.846;9.610;2022-08-19T05:05:29;19.60;99.90
16327;DHT22;34812;49.846;9.610;2022-08-19T05:06:32;19.70;99.90
16327;DHT22;34812;49.846;9.610;2022-08-19T05:07:34;19.70;99.90
16327;DHT22;34812;49.846;9.610;2022-08-19T05:08:37;19.70;99.90
16327;DHT22;34812;49.846;9.610;2022-08-19T05:09:41;19.70;99.90
16327;DHT22;34812;49.846;9.610;2022-08-19T05:10:42;19.80;99.90
16327;DHT22;34812;49.846;9.610;2022-08-19T05:11:44;19.80;99.90
16327;DHT22;34812;49.846;9.610;2022-08-19T05:12:45;19.80;99.90
16327;DHT22;34812;49.846;9.610;2022-08-19T05:13:47;19.80;99.90
16327;DHT22;34812;49.846;9.610;2022-08-19T05:14:49;19.80;99.90
16327;DHT22;34812;49.846;9.610;2022-08-19T05:15:57;19.80;99.90
16327;DHT22;34812;49.846;9.610;2022-08-19T05:16:58;19.90;99.90
16327;DHT22;34812;49.846;9.610;2022-08-19T05:18:00;19.80;99.90
16327;DHT22;34812;49.846;9.610;2022-08-19T05:19:19;19.80;99.90
16327;DHT22;34812;49.846;9.610;2022-08-19T05:20:38;19.90;99.90
16327;DHT22;34812;49.846;9.610;2022-08-19T05:21:59;19.80;99.90
16327;DHT22;34812;49.846;9.610;2022-08-19T05:23:19;19.80;99.90
16327;DHT22;34812;49.846;9.610;2022-08-19T05:24:22;19.80;99.90
16327;DHT22;34812;49.846;9.610;2022-08-19T05:25:23;19.80;99.90
16327;DHT22;34812;49.846;9.610;2022-08-19T05:26:26;19.80;99.90
16327;DHT22;34812;49.846;9.610;2022-08-19T05:27:27;19.80;99.90
16327;DHT22;34812;49.846;9.610;2022-08-19T05:28:28;19.80;99.90
16327;DHT22;34812;49.846;9.610;2022-08-19T05:29:30;19.80;99.90
16327;DHT22;34812;49.846;9.610;2022-08-19T05:30:32;19.80;99.90
16327;DHT22;34812;49.846;9.610;2022-08-19T05:31:36;19.80;99.90
16327;DHT22;34812;49.846;9.610;2022-08-19T05:32:40;19.80;99.90
16327;DHT22;34812;49.846;9.610;2022-08-19T05:33:41;19.80;99.90
16327;DHT22;34812;49.846;9.610;2022-08-19T05:34:42;19.80;99.90
16327;DHT22;34812;49.846;9.610;2022-08-19T05:35:43;19.90;99.90
16327;DHT22;34812;49.846;9.610;2022-08-19T05:36:47;19.90;99.90
16327;DHT22;34812;49.846;9.610;2022-08-19T05:37:48;19.90;99.90
16327;DHT22;34812;49.846;9.610;2022-08-19T05:38:49;19.90;99.90
16327;DHT22;34812;49.846;9.610;2022-08-19T05:39:50;19.90;99.90
16327;DHT22;34812;49.846;9.610;2022-08-19T05:40:52;20.00;99.90
16327;DHT22;34812;49.846;9.610;2022-08-19T05:41:54;20.10;99.90
16327;DHT22;34812;49.846;9.610;2022-08-19T05:42:57;20.10;99.90
16327;DHT22;34812;49.846;9.610;2022-08-19T05:44:03;20.10;99.90
16327;DHT22;34812;49.846;9.610;2022-08-19T05:45:07;20.20;99.90
16327;DHT22;34812;49.846;9.610;2022-08-19T05:46:17;20.30;99.90
16327;DHT22;34812;49.846;9.610;2022-08-19T05:47:20;20.30;99.90
16327;DHT22;34812;49.846;9.610;2022-08-19T05:48:23;20.40;99.90
16327;DHT22;34812;49.846;9.610;2022-08-19T05:49:24;20.50;99.90
16327;DHT22;34812;49.846;9.610;2022-08-19T05:50:27;20.50;99.90
16327;DHT22;34812;49.846;9.610;2022-08-19T05:51:28;20.60;99.90
16327;DHT22;34812;49.846;9.610;2022-08-19T05:52:29;20.60;99.90
16327;DHT22;34812;49.846;9.610;2022-08-19T05:53:30;20.60;99.90
16327;DHT22;34812;49.846;9.610;2022-08-19T05:54:33;20.70;99.90
16327;DHT22;34812;49.846;9.610;2022-08-19T05:55:34;20.70;99.90
16327;DHT22;34812;49.846;9.610;2022-08-19T05:56:37;20.70;99.90
16327;DHT22;34812;49.846;9.610;2022-08-19T05:57:38;20.70;99.90
16327;DHT22;34812;49.846;9.610;2022-08-19T05:58:40;20.80;99.90
16327;DHT22;34812;49.846;9.610;2022-08-19T05:59:42;20.80;99.90
16327;DHT22;34812;49.846;9.610;2022-08-19T06:00:44;20.80;99.90
16327;DHT22;34812;49.846;9.610;2022-08-19T06:01:46;20.80;99.90
16327;DHT22;34812;49.846;9.610;2022-08-19T06:02:52;20.90;99.90
16327;DHT22;34812;49.846;9.610;2022-08-19T06:03:54;20.90;99.90
16327;DHT22;34812;49.846;9.610;2022-08-19T06:04:56;21.00;99.90
16327;DHT22;34812;49.846;9.610;2022-08-19T06:05:57;21.00;99.90
16327;DHT22;34812;49.846;9.610;2022-08-19T06:07:00;21.00;99.90
16327;DHT22;34812;49.846;9.610;2022-08-19T06:08:02;21.10;99.90
16327;DHT22;34812;49.846;9.610;2022-08-19T06:09:06;21.10;99.90
16327;DHT22;34812;49.846;9.610;2022-08-19T06:10:09;21.10;99.90
16327;DHT22;34812;49.846;9.610;2022-08-19T06:11:17;21.20;99.90
16327;DHT22;34812;49.846;9.610;2022-08-19T06:12:18;21.20;99.90
16327;DHT22;34812;49.846;9.610;2022-08-19T06:13:20;21.30;99.90
16327;DHT22;34812;49.846;9.610;2022-08-19T06:14:23;21.30;99.90
16327;DHT22;34812;49.846;9.610;2022-08-19T06:15:26;21.30;99.90
16327;DHT22;34812;49.846;9.610;2022-08-19T06:16:28;21.30;99.90
16327;DHT22;34812;49.846;9.610;2022-08-19T06:17:32;21.40;99.90
16327;DHT22;34812;49.846;9.610;2022-08-19T06:18:36;21.40;99.90
16327;DHT22;34812;49.846;9.610;2022-08-19T06:19:37;21.50;99.90
16327;DHT22;34812;49.846;9.610;2022-08-19T06:20:40;21.50;99.90
16327;DHT22;34812;49.846;9.610;2022-08-19T06:21:42;21.50;99.90
16327;DHT22;34812;49.846;9.610;2022-08-19T06:22:48;21.50;99.90
16327;DHT22;34812;49.846;9.610;2022-08-19T06:23:50;21.50;99.90
16327;DHT22;34812;49.846;9.610;2022-08-19T06:24:52;21.50;99.90
16327;DHT22;34812;49.846;9.610;2022-08-19T06:25:54;21.50;99.90
16327;DHT22;34812;49.846;9.610;2022-08-19T06:26:56;21.60;99.90
16327;DHT22;34812;49.846;9.610;2022-08-19T06:27:58;21.50;99.90
16327;DHT22;34812;49.846;9.610;2022-08-19T06:28:59;21.60;99.90
16327;DHT22;34812;49.846;9.610;2022-08-19T06:30:00;21.60;99.90
16327;DHT22;34812;49.846;9.610;2022-08-19T06:31:06;21.60;99.90
16327;DHT22;34812;49.846;9.610;2022-08-19T06:32:07;21.60;99.90
16327;DHT22;34812;49.846;9.610;2022-08-19T06:33:09;21.60;99.90
16327;DHT22;34812;49.846;9.610;2022-08-19T06:34:11;21.60;99.90
16327;DHT22;34812;49.846;9.610;2022-08-19T06:35:13;21.60;99.90
16327;DHT22;34812;49.846;9.610;2022-08-19T06:36:20;21.60;99.90